Tiempo atmosférico en la estación meteorológica de Es Mercadal, Illes Balears (77 m.)



Fecha
DESCASC
Temp. máxima en grados centígrados (hora)
DESCASC
Temp. mínima en grados centígrados (hora)
DESCASC
Temp. media en grados centígrados
DESCASC
Racha de viento máxima en m/sg (hora)
DESCASC
Velocidad máxima media en intervalos de 10 minutos(hora)
DESCASC
Precipitaciones diarias en mm
DESCASC
Precipitaciones de 00:00 a 06:00 en mm
DESCASC
Precipitaciones de 06:00 a 12:00 en mm
DESCASC
Precipitaciones de 12:00 a 18:00 en mm
DESCASC
Precipitaciones de 18:00 a 24:00 en mm
DESCASC
05-04-2020 19.8 (14:40) 7.4 (07:00) 13.6 7.22 (15:30) 4.72 (15:20) 0 0 0 0 0
04-04-2020 17.5 (15:00) 8.8 (01:20) 13.2 6.67 (09:40) 4.44 (09:50) 0 0 0 0 0
03-04-2020 14.9 (13:10) 8.9 (23:30) 11.9 12.78 (06:10) 8.33 (06:10) 1.2 0.2 1 0 0
02-04-2020 18.1 (15:40) 11.4 (00:00) 14.8 8.89 (16:30) 4.17 (16:30) 9.8 2.8 5 0.4 1.6
01-04-2020 17.5 (16:10) 12.6 (00:00) 15.1 15.28 (09:40) 10.28 (10:00) 0 0 0 0 0
31-03-2020 15.7 (13:40) 12.2 (00:00) 13.9 15.83 (12:00) 11.11 (12:30) 4.4 0 0 2.8 1.6
30-03-2020 14.7 (17:40) 8.9 (00:00) 11.8 8.61 (11:50) 5.56 (15:30) 0 0 0 0 0
29-03-2020 18.2 (17:20) 10.1 (00:00) 14.2 8.61 (13:40) 5.56 (12:30) 0 0 0 0 0
28-03-2020 14.3 (12:40) 9.1 (00:00) 11.7 7.78 (13:40) 5.28 (13:40) 9.4 0.6 1.2 7.6 0
27-03-2020 13.5 (15:20) 6.4 (00:00) 10 11.39 (11:00) 7.5 (12:20) 3.8 0 0 0.6 3.2
26-03-2020 11 (11:10) 4.2 (00:00) 7.6 12.5 (19:30) 7.78 (19:30) 11.2 0 9 0.4 1.8
25-03-2020 12.6 (12:10) 4.5 (00:00) 8.6 15.28 (12:30) 10 (12:30) 0 0 0 0 0
24-03-2020 13.8 (13:10) 9.6 (00:00) 11.7 15.83 (13:20) 10 (13:40) 0 0 0 0 0
23-03-2020 17.7 (12:30) 11.6 (00:00) 14.7 10.56 (23:40) 6.39 (23:40) 0.2 0 0 0.2 0
22-03-2020 15.6 (10:30) 11.6 (17:40) 13.6 10.56 (05:00) 7.5 (04:50) 14 1.6 0 12.2 0.2
21-03-2020 17.7 (11:30) 12.2 (00:00) 15 10.83 (12:20) 7.22 (11:00) 0 0 0 0 0
20-03-2020 16.4 (14:30) 10.5 (00:00) 13.4 11.94 (13:50) 7.22 (16:00) 0 0 0 0 0
19-03-2020 17.7 (14:30) 9.2 (00:00) 13.5 8.06 (15:20) 5 (17:10) 0 0 0 0 0
18-03-2020 15.4 (14:40) 11.5 (00:00) 13.4 7.78 (00:50) 5 (10:40) 0 0 0 0 0
17-03-2020 16 (12:40) 13 (00:00) 14.5 15.28 (07:00) 8.89 (09:00) 0 0 0 0 0
16-03-2020 15.8 (14:30) 11.1 (00:00) 13.5 16.67 (15:30) 9.72 (11:20) 0 0 0 0 0
15-03-2020 19.1 (16:10) 8.7 (00:00) 13.9 6.94 (19:50) 4.17 (19:50) 0 0 0 0 0
14-03-2020 16.4 (13:10) 9.5 (00:00) 12.9 10.56 (09:10) 6.67 (02:50) 0 0 0 0 0
13-03-2020 16.9 (11:50) 10.1 (03:10) 13.5 11.39 (12:00) 8.33 (11:00) 0 0 0 0 0
12-03-2020 20.1 (14:40) 11.5 (00:00) 15.8 9.17 (13:10) 6.94 (13:10) 0 0 0 0 0
11-03-2020 20.2 (15:00) 9.9 (00:00) 15.1 6.94 (15:50) 4.72 (19:50) 0 0 0 0 0
10-03-2020 15.9 (17:10) 11.1 (00:00) 13.5 19.72 (02:50) 13.06 (04:10) 0 0 0 0 0

Gráficas

Temp. máximas Temp. mínimas Temp. medias Precipitaciones Rachas de viento máximas Velocidades máximas media en intervalos de 10 minutos

Datos horarios

Fecha y hora oficial Temperatura (ºC) Velocidad del viento (km/h) Dirección del viento Racha (km/h) Dirección de racha Precipitación (mm) Presión (hPa) Tendencia (hPa) Humedad (%)
2020-04-08 23:00:00 13 5 Sudoeste 8 Sudoeste 0 -- -- 76
2020-04-08 22:00:00 13.6 3 Sudoeste 6 Sudoeste 0 -- -- 74
2020-04-08 21:00:00 14.3 3 Sudoeste 9 Sudoeste 0 -- -- 71
2020-04-08 20:00:00 16.1 5 Sur 15 Sudoeste 0 -- -- 63
2020-04-08 19:00:00 17.8 11 Sudoeste 19 Sudoeste 0 -- -- 54
2020-04-08 18:00:00 19.1 11 Sudoeste 18 Sudoeste 0 -- -- 44
2020-04-08 17:00:00 19.8 11 Sudoeste 23 Sudoeste 0 -- -- 45
2020-04-08 16:00:00 21.5 6 Oeste 14 Sudeste 0 -- -- 40
2020-04-08 15:00:00 19.4 10 Norte 24 Sudoeste 0 -- -- 60
2020-04-08 14:00:00 19.6 15 Sudoeste 24 Sudoeste 0 -- -- 47
2020-04-08 13:00:00 20.9 7 Sur 18 Sudoeste 0 -- -- 60
2020-04-08 12:00:00 20 9 Sur 15 Sur 0 -- -- 52
2020-04-08 11:00:00 17.6 3 Este 10 Este 0 -- -- 58
2020-04-08 10:00:00 16.2 3 Sudoeste 5 Sur 0 -- -- 82
2020-04-08 09:00:00 14.2 0 Calma 4 Noroeste 0 -- -- 91
2020-04-08 08:00:00 10.8 2 Noroeste 4 Oeste 0 -- -- 94
2020-04-08 07:00:00 10.4 0 Calma 4 Oeste 0 -- -- 93
2020-04-08 06:00:00 10.4 2 Sudoeste 6 Oeste 0 -- -- 92
2020-04-08 05:00:00 11 0 Calma 4 Oeste 0 -- -- 90
2020-04-08 04:00:00 10.4 4 Oeste 6 Oeste 0 -- -- 89
2020-04-08 03:00:00 10.3 0 Calma 4 Este 0 -- -- 85
2020-04-08 02:00:00 11.1 0 Calma 2 Nordeste 0 -- -- 81
2020-04-08 01:00:00 11.3 0 Calma 2 Oeste 0 -- -- 80
2020-04-08 00:00:00 10.8 2 Oeste 3 Oeste 0 -- -- 80
2020-04-07 23:00:00 11.7 0 Calma 3 Este 0 -- -- 73
2020-04-07 22:00:00 12.6 0 Calma 4 Noroeste 0 -- -- 71
2020-04-07 21:00:00 13.5 2 Nordeste 6 Nordeste 0 -- -- 68
2020-04-07 20:00:00 14.8 4 Nordeste 10 Nordeste 0 -- -- 61
2020-04-07 19:00:00 16.5 9 Nordeste 21 Este 0 -- -- 47
2020-04-07 18:00:00 19.1 12 Este 24 Sudeste 0 -- -- 43
2020-04-07 17:00:00 19.4 11 Este 24 Este 0 -- -- 43
2020-04-07 16:00:00 19.5 13 Este 24 Nordeste 0 -- -- 44
2020-04-07 15:00:00 19.6 11 Este 26 Este 0 -- -- 43
2020-04-07 14:00:00 19.3 9 Este 24 Nordeste 0 -- -- 43
2020-04-07 13:00:00 17.7 12 Nordeste 22 Nordeste 0 -- -- 44
2020-04-07 12:00:00 17.1 13 Nordeste 22 Nordeste 0 -- -- 46
2020-04-07 11:00:00 16.3 12 Nordeste 17 Nordeste 0 -- -- 53
2020-04-07 10:00:00 16.2 6 Nordeste 11 Nordeste 0 -- -- 62
2020-04-07 09:00:00 14.3 0 Calma 5 Oeste 0 -- -- 77
2020-04-07 08:00:00 10.7 0 Calma 4 Oeste 0 -- -- 88
2020-04-07 07:00:00 9.5 2 Noroeste 4 Oeste 0 -- -- 91
2020-04-07 06:00:00 9.6 0 Calma 4 Oeste 0 -- -- 91
2020-04-07 05:00:00 9.9 2 Oeste 4 Oeste 0 -- -- 90
2020-04-07 04:00:00 10.1 0 Calma 5 Sur 0 -- -- 89
2020-04-07 03:00:00 9.9 3 Sudoeste 5 Sudeste 0 -- -- 89
2020-04-07 02:00:00 10.4 2 Sudoeste 4 Sudoeste 0 -- -- 90
2020-04-07 01:00:00 10.2 2 Sudoeste 4 Sudoeste 0 -- -- 86
2020-04-07 00:00:00 10.3 2 Sudoeste 5 Sudoeste 0 -- -- 84
2020-04-06 23:00:00 12.4 3 Sudoeste 8 Sudoeste 0 -- -- 75
2020-04-06 22:00:00 12.2 3 Sudoeste 11 Sur 0 -- -- 72
2020-04-06 21:00:00 12.8 3 Sudeste 17 Este 0 -- -- 68
2020-04-06 20:00:00 14.7 8 Sudeste 22 Este 0 -- -- 59
2020-04-06 19:00:00 17.4 13 Este 23 Este 0 -- -- 48
2020-04-06 18:00:00 17.8 8 Nordeste 17 Nordeste 0 -- -- 37
2020-04-06 17:00:00 18.3 8 Nordeste 22 Nordeste 0 -- -- 39
2020-04-06 16:00:00 18.3 10 Nordeste 18 Nordeste 0 -- -- 39
2020-04-06 15:00:00 18.6 11 Nordeste 20 Nordeste 0 -- -- 38
2020-04-06 14:00:00 18.3 14 Nordeste 22 Nordeste 0 -- -- 42
2020-04-06 13:00:00 18.6 12 Nordeste 19 Nordeste 0 -- -- 42
2020-04-06 12:00:00 18.3 4 Oeste 10 Norte 0 -- -- 34
2020-04-06 11:00:00 18.1 6 Sudeste 11 Sudeste 0 -- -- 31
2020-04-06 10:00:00 17 2 Nordeste 6 Sur 0 -- -- 45
2020-04-06 09:00:00 13.3 2 Sudoeste 4 Sudoeste 0 -- -- 59
2020-04-06 08:00:00 8.4 3 Sur 6 Sur 0 -- -- 79
2020-04-06 07:00:00 8.2 4 Sudoeste 5 Sur 0 -- -- 92
2020-04-06 06:00:00 7.6 3 Sudoeste 5 Sudoeste 0 -- -- 92
2020-04-06 05:00:00 8.9 2 Sudoeste 4 Oeste 0 -- -- 91
2020-04-06 04:00:00 8.8 0 Calma 4 Sudoeste 0 -- -- 93
2020-04-06 03:00:00 9 3 Sudoeste 4 Sudoeste 0 -- -- 92
2020-04-06 02:00:00 9.6 4 Oeste 6 Oeste 0 -- -- 90
2020-04-06 01:00:00 9.9 0 Calma 4 Oeste 0 -- -- 88
2020-04-06 00:00:00 9.9 3 Sudoeste 5 Sudoeste 0 -- -- 90
2020-04-05 23:00:00 10.2 3 Oeste 4 Oeste 0 -- -- 89
2020-04-05 22:00:00 10.9 0 Calma 2 Oeste 0 -- -- 86
2020-04-05 21:00:00 12 3 Noroeste 6 Oeste 0 -- -- 80
2020-04-05 20:00:00 14.1 6 Norte 10 Norte 0 -- -- 71
2020-04-05 19:00:00 15.4 7 Nordeste 15 Nordeste 0 -- -- 66
2020-04-05 18:00:00 15.6 10 Nordeste 19 Norte 0 -- -- 62
2020-04-05 17:00:00 17.5 10 Norte 19 Sur 0 -- -- 52
2020-04-05 16:00:00 18.4 12 Sudoeste 26 Sudoeste 0 -- -- 38
2020-04-05 15:00:00 19.7 9 Sur 21 Sur 0 -- -- 36
2020-04-05 14:00:00 18.7 12 Este 23 Este 0 -- -- 35
2020-04-05 13:00:00 18.3 16 Este 25 Sudeste 0 -- -- 48
2020-04-05 12:00:00 18.4 7 Este 18 Sudeste 0 -- -- 44
2020-04-05 11:00:00 16.2 6 Nordeste 12 Nordeste 0 -- -- 61
2020-04-05 10:00:00 14 5 Nordeste 9 Nordeste 0 -- -- 89
2020-04-05 09:00:00 12.2 0 Calma 4 Oeste 0 -- -- 92
2020-04-05 08:00:00 9.2 3 Oeste 5 Oeste 0 -- -- 96
2020-04-05 07:00:00 7.4 0 Calma 3 Noroeste 0 -- -- 95
2020-04-05 06:00:00 8.3 2 Sudoeste 4 Oeste 0 -- -- 95
2020-04-05 05:00:00 8.3 0 Calma 8 Sudoeste 0 -- -- 96
2020-04-05 04:00:00 8.6 4 Sudeste 9 Sudoeste 0 -- -- 94
2020-04-05 03:00:00 8.6 4 Sudoeste 6 Oeste 0 -- -- 94
2020-04-05 02:00:00 9.5 3 Oeste 4 Oeste 0 -- -- 92
2020-04-05 01:00:00 9.2 0 Calma 3 Oeste 0 -- -- 91
2020-04-05 00:00:00 9.9 0 Calma 4 Oeste 0 -- -- 88
2020-04-04 23:00:00 10 0 Calma 3 Oeste 0 -- -- 86
2020-04-04 22:00:00 9.8 2 Oeste 3 Oeste 0 -- -- 84
2020-04-04 21:00:00 11 2 Oeste 6 Nordeste 0 -- -- 75
2020-04-04 20:00:00 14 7 Nordeste 14 Nordeste 0 -- -- 62
2020-04-04 19:00:00 15.4 10 Nordeste 16 Nordeste 0 -- -- 50
2020-04-04 18:00:00 16.6 9 Nordeste 20 Nordeste 0 -- -- 51
2020-04-04 17:00:00 16.8 13 Norte 22 Norte 0 -- -- 51
2020-04-04 16:00:00 17.4 10 Norte 19 Norte 0 -- -- 46
2020-04-04 15:00:00 17.5 11 Nordeste 22 Norte 0 -- -- 46
2020-04-04 14:00:00 17.1 9 Nordeste 20 Norte 0 -- -- 47
2020-04-04 13:00:00 16.2 13 Norte 21 Norte 0 -- -- 59
2020-04-04 12:00:00 15.7 12 Norte 20 Norte 0 -- -- 60
2020-04-04 11:00:00 15.6 12 Norte 22 Norte 0 -- -- 64
2020-04-04 10:00:00 14.3 14 Norte 24 Norte 0 -- -- 68
2020-04-04 09:00:00 13.3 6 Norte 10 Norte 0 -- -- 79
2020-04-04 08:00:00 11 4 Norte 10 Norte 0 -- -- 84
2020-04-04 07:00:00 10.2 7 Norte 10 Norte 0 -- -- 84
2020-04-04 06:00:00 10.2 5 Norte 15 Noroeste 0 -- -- 85
2020-04-04 05:00:00 10.5 5 Norte 17 Noroeste 0 -- -- 83
2020-04-04 04:00:00 11.1 8 Noroeste 17 Noroeste 0 -- -- 81
2020-04-04 03:00:00 10.3 7 Oeste 17 Oeste 0 -- -- 81
2020-04-04 02:00:00 9.4 6 Oeste 11 Oeste 0 -- -- 80
2020-04-04 01:00:00 9.2 4 Oeste 8 Oeste 0 -- -- 79
2020-04-04 00:00:00 9.1 3 Oeste 10 Oeste 0 -- -- 78
2020-04-03 23:00:00 9.6 3 Sudoeste 5 Oeste 0 -- -- 78
2020-04-03 22:00:00 10.2 0 Calma 9 Noroeste 0 -- -- 74
2020-04-03 21:00:00 10.6 6 Noroeste 13 Norte 0 -- -- 74
2020-04-03 20:00:00 11.9 8 Norte 23 Norte 0 -- -- 67
2020-04-03 19:00:00 13.7 15 Norte 27 Norte 0 -- -- 62
2020-04-03 18:00:00 14.6 15 Norte 27 Norte 0 -- -- 58
2020-04-03 17:00:00 14.8 17 Nordeste 30 Nordeste 0 -- -- 65
2020-04-03 16:00:00 14.4 23 Nordeste 36 Nordeste 0 -- -- 60
2020-04-03 15:00:00 14.5 21 Nordeste 33 Norte 0 -- -- 66
2020-04-03 14:00:00 14.4 17 Norte 33 Norte 0 -- -- 73
2020-04-03 13:00:00 14.4 24 Nordeste 37 Nordeste 0 -- -- 70
2020-04-03 12:00:00 13.7 26 Norte 39 Norte 0 -- -- 73
2020-04-03 11:00:00 13 22 Norte 39 Nordeste 0 -- -- 78
2020-04-03 10:00:00 12.7 28 Nordeste 46 Nordeste 0 -- -- 79
2020-04-03 09:00:00 12 19 Nordeste 42 Nordeste 0 -- -- 83
2020-04-03 08:00:00 11.5 27 Nordeste 38 Norte 0 -- -- 88
2020-04-03 07:00:00 10.9 18 Nordeste 46 Nordeste 1 -- -- 88
2020-04-03 06:00:00 11.6 26 Norte 45 Norte 0 -- -- 92
2020-04-03 05:00:00 12.1 14 Norte 29 Norte 0 -- -- 91
2020-04-03 04:00:00 12.1 16 Norte 29 Norte 0 -- -- 91
2020-04-03 03:00:00 12 17 Norte 30 Norte 0 -- -- 92
2020-04-03 02:00:00 12.1 18 Norte 28 Norte 0.2 -- -- 93
2020-04-03 01:00:00 11.7 12 Nordeste 18 Norte 0 -- -- 94
2020-04-03 00:00:00 11.4 6 Norte 20 Nordeste 0 -- -- 94
2020-04-02 23:00:00 11.8 13 Norte 22 Norte 0.4 -- -- 94
2020-04-02 22:00:00 11.7 10 Norte 19 Nordeste 1.2 -- -- 93
2020-04-02 21:00:00 12.1 14 Norte 21 Norte 0 -- -- 90
2020-04-02 20:00:00 12.5 3 Norte 10 Nordeste 0 -- -- 87
2020-04-02 19:00:00 13 3 Noroeste 15 Norte 0 -- -- 88
2020-04-02 18:00:00 13.6 6 Noroeste 12 Noroeste 0 -- -- 82
2020-04-02 17:00:00 12.2 4 Sudoeste 32 Oeste 0 -- -- 83
2020-04-02 16:00:00 18 9 Sudeste 17 Sudeste 0 -- -- 63
2020-04-02 15:00:00 15.6 6 Sur 15 Sudeste 0 -- -- 72
2020-04-02 14:00:00 14.8 7 Este 19 Sudeste 0 -- -- 86
2020-04-02 13:00:00 14.8 8 Sudeste 23 Sudeste 0.4 -- -- 90
2020-04-02 12:00:00 13.2 15 Sudeste 23 Sudeste 0.4 -- -- 94
2020-04-02 11:00:00 12 2 Sudoeste 14 Sudoeste 4.6 -- -- 95
2020-04-02 10:00:00 13.6 2 Nordeste 9 Sudeste 0 -- -- 95
2020-04-02 09:00:00 12.7 7 Sudeste 8 Sudeste 0 -- -- 95
2020-04-02 08:00:00 12.1 4 Sudoeste 9 Sur 0 -- -- 96
2020-04-02 07:00:00 12.8 8 Sudoeste 12 Sur 0 -- -- 95
2020-04-02 06:00:00 13.1 5 Sudoeste 9 Sudoeste 0 -- -- 95
2020-04-02 05:00:00 13.5 7 Sudoeste 15 Sudoeste 1.2 -- -- 95
2020-04-02 04:00:00 13.9 7 Sur 13 Sur 1.4 -- -- 95
2020-04-02 03:00:00 13.6 4 Sudoeste 15 Sudoeste 0.2 -- -- 95
2020-04-02 02:00:00 13.4 9 Sur 14 Sur 0 -- -- 94
2020-04-02 01:00:00 13.8 10 Sudoeste 23 Sur 0 -- -- 93
2020-04-02 00:00:00 14.2 14 Sudoeste 26 Sur 0 -- -- 92
2020-04-01 23:00:00 14.4 19 Sur 32 Sur 0 -- -- 91
2020-04-01 22:00:00 14.6 17 Sur 30 Sudeste 0 -- -- 89
2020-04-01 21:00:00 14.4 18 Sur 31 Sur 0 -- -- 89
2020-04-01 20:00:00 14.7 17 Sur 32 Sur 0 -- -- 88
2020-04-01 19:00:00 15.4 16 Sur 32 Sur 0 -- -- 84
2020-04-01 18:00:00 16.4 19 Sur 33 Sur 0 -- -- 80
2020-04-01 17:00:00 16.7 20 Sur 33 Sur 0 -- -- 78
2020-04-01 16:00:00 17.4 20 Sur 40 Sur 0 -- -- 78
2020-04-01 15:00:00 16.2 21 Sudeste 41 Sudeste 0 -- -- 84
2020-04-01 14:00:00 14.7 19 Sudeste 38 Sudeste 0 -- -- 88
2020-04-01 13:00:00 14.4 18 Sudeste 35 Sudeste 0 -- -- 89
2020-04-01 12:00:00 14.3 20 Sudeste 43 Este 0 -- -- 86
2020-04-01 11:00:00 14.9 23 Este 55 Este 0 -- -- 81
2020-04-01 10:00:00 15.2 37 Este 55 Este 0 -- -- 76
2020-04-01 09:00:00 14.3 32 Este 53 Este 0 -- -- 84
2020-04-01 08:00:00 13.1 23 Este 40 Sudeste 0 -- -- 87
2020-04-01 07:00:00 13 20 Este 39 Sudeste 0 -- -- 87
2020-04-01 06:00:00 12.8 19 Este 32 Este 0 -- -- 88
2020-04-01 05:00:00 12.7 20 Este 35 Este 0 -- -- 85
2020-04-01 04:00:00 12.7 23 Este 36 Este 0 -- -- 86
2020-04-01 03:00:00 12.7 20 Este 40 Este 0 -- -- 86
2020-04-01 02:00:00 12.7 23 Este 46 Este 0 -- -- 84
2020-04-01 01:00:00 12.8 24 Este 40 Este 0 -- -- 87
2020-04-01 00:00:00 12.8 21 Este 38 Este 0 -- -- 87
2020-03-31 23:00:00 12.7 23 Este 42 Este 0 -- -- 87
2020-03-31 22:00:00 12.3 20 Este 46 Este 0 -- -- 86
2020-03-31 21:00:00 12.3 26 Este 45 Este 0.2 -- -- 91
2020-03-31 20:00:00 12.7 20 Este 47 Este 0 -- -- 92
2020-03-31 19:00:00 13 20 Este 38 Este 1.4 -- -- 92
2020-03-31 18:00:00 13.3 25 Este 41 Sudeste 1.2 -- -- 92
2020-03-31 17:00:00 13.3 19 Este 45 Este 1.6 -- -- 90
2020-03-31 16:00:00 14.6 29 Este 46 Este 0 -- -- 79
2020-03-31 15:00:00 15 30 Este 49 Este 0 -- -- 77
2020-03-31 14:00:00 15.3 28 Este 46 Este 0 -- -- 75
2020-03-31 13:00:00 14.9 36 Este 56 Este 0 -- -- 75
2020-03-31 12:00:00 14.6 35 Este 57 Este 0 -- -- 78
2020-03-31 11:00:00 14.9 26 Este 45 Este 0 -- -- 78
2020-03-31 10:00:00 13.6 25 Este 42 Este 0 -- -- 85
2020-03-31 09:00:00 13 23 Este 38 Este 0 -- -- 86
2020-03-31 08:00:00 12.6 16 Este 33 Este 0 -- -- 88
2020-03-31 07:00:00 12.4 18 Este 30 Este 0 -- -- 89
2020-03-31 06:00:00 12.4 12 Nordeste 25 Este 0 -- -- 89
2020-03-31 05:00:00 12.5 15 Este 27 Este 0 -- -- 88
2020-03-31 04:00:00 12.4 13 Este 24 Este 0 -- -- 89
2020-03-31 03:00:00 12.4 11 Este 23 Este 0 -- -- 90
2020-03-31 02:00:00 12.4 11 Este 24 Este 0 -- -- 90
2020-03-31 01:00:00 12.4 13 Este 26 Este 0 -- -- 90
2020-03-31 00:00:00 12.5 11 Este 20 Este 0 -- -- 90
2020-03-30 23:00:00 12.5 11 Este 22 Este 0 -- -- 89
2020-03-30 22:00:00 12 9 Este 22 Este 0 -- -- 89
2020-03-30 21:00:00 11.7 10 Este 26 Este 0 -- -- 89
2020-03-30 20:00:00 12.2 12 Este 28 Este 0 -- -- 86
2020-03-30 19:00:00 13.2 18 Este 27 Este 0 -- -- 81
2020-03-30 18:00:00 14.1 17 Este 26 Este 0 -- -- 77
2020-03-30 17:00:00 13 17 Este 30 Este 0 -- -- 80
2020-03-30 16:00:00 13.7 16 Este 30 Este 0 -- -- 77
2020-03-30 15:00:00 12.9 14 Este 26 Nordeste 0 -- -- 78
2020-03-30 14:00:00 13.1 18 Nordeste 28 Nordeste 0 -- -- 76
2020-03-30 13:00:00 13.4 16 Nordeste 26 Nordeste 0 -- -- 74
2020-03-30 12:00:00 13.1 15 Nordeste 31 Nordeste 0 -- -- 74
2020-03-30 11:00:00 13.1 17 Nordeste 27 Nordeste 0 -- -- 77
2020-03-30 10:00:00 14 7 Este 14 Nordeste 0 -- -- 87
2020-03-30 09:00:00 11.9 0 Calma 3 Sudeste 0 -- -- 92
2020-03-30 08:00:00 10.4 4 Sudeste 6 Sudeste 0 -- -- 93
2020-03-30 07:00:00 9.9 3 Oeste 7 Oeste 0 -- -- 91
2020-03-30 06:00:00 10.1 3 Sudeste 5 Sudeste 0 -- -- 89
2020-03-30 05:00:00 9.5 2 Oeste 9 Nordeste 0 -- -- 89
2020-03-30 04:00:00 10 7 Nordeste 13 Sudoeste 0 -- -- 82
2020-03-30 03:00:00 11 3 Sudoeste 8 Sudoeste 0 -- -- 82
2020-03-30 02:00:00 10 8 Sudoeste 13 Noroeste 0 -- -- 91
2020-03-30 01:00:00 10.1 2 Sur 8 Oeste 0 -- -- 90
2020-03-30 00:00:00 10.1 0 Calma 4 Oeste 0 -- -- 83
2020-03-29 23:00:00 10.9 0 Calma 6 Sudoeste 0 -- -- 81
2020-03-29 22:00:00 10.7 0 Calma 4 Sudoeste 0 -- -- 81
2020-03-29 21:00:00 12.9 2 Nordeste 8 Sudoeste 0 -- -- 74
2020-03-29 20:00:00 14.1 8 Sudoeste 24 Oeste 0 -- -- 70
2020-03-29 19:00:00 16.4 12 Oeste 18 Oeste 0 -- -- 52
2020-03-29 18:00:00 17.5 13 Oeste 18 Oeste 0 -- -- 43
2020-03-29 17:00:00 17.6 8 Norte 18 Noroeste 0 -- -- 46
2020-03-29 16:00:00 17.6 12 Norte 19 Norte 0 -- -- 48
2020-03-29 15:00:00 17.2 11 Norte 26 Noroeste 0 -- -- 57
2020-03-29 14:00:00 17 18 Noroeste 31 Noroeste 0 -- -- 56
2020-03-29 13:00:00 15.7 20 Noroeste 31 Noroeste 0 -- -- 63
2020-03-29 12:00:00 15.9 14 Oeste 23 Oeste 0 -- -- 68
2020-03-29 11:00:00 15 11 Noroeste 22 Oeste 0 -- -- 70
2020-03-29 10:00:00 14.3 10 Noroeste 19 Noroeste 0 -- -- 78
2020-03-29 09:00:00 12.9 6 Noroeste 13 Oeste 0 -- -- 89
2020-03-29 08:00:00 10.7 6 Oeste 10 Noroeste 0 -- -- 92
2020-03-29 07:00:00 10.5 6 Oeste 13 Noroeste 0 -- -- 93
2020-03-29 06:00:00 10.4 6 Noroeste 12 Oeste 0 -- -- 93
2020-03-29 05:00:00 10.2 3 Sudoeste 7 Sudoeste 0 -- -- 92
2020-03-29 03:00:00 10.6 0 Calma 2 Norte 0 -- -- 93
2020-03-29 01:00:00 10.6 0 Calma 3 Oeste 0 -- -- 93
2020-03-29 00:00:00 10.1 2 Oeste 4 Oeste 0 -- -- 93
2020-03-28 23:00:00 9.8 2 Sudoeste -- -- 0 -- -- 92
2020-03-28 22:00:00 10.1 4 Oeste 5 Oeste 0 -- -- 91
2020-03-28 21:00:00 10.6 0 Calma 3 Oeste 0 -- -- 90
2020-03-28 20:00:00 11.2 3 Noroeste 12 Norte 0 -- -- 88
2020-03-28 19:00:00 11.9 6 Norte 12 Norte 0 -- -- 87
2020-03-28 18:00:00 12.6 7 Norte 14 Norte 0 -- -- 86
2020-03-28 17:00:00 13.3 8 Noroeste 13 Oeste 0 -- -- 85
2020-03-28 16:00:00 12.2 6 Noroeste 12 Sudoeste 0 -- -- 88
2020-03-28 15:00:00 10.8 6 Sudoeste 12 Sudoeste 0.8 -- -- 87
2020-03-28 14:00:00 9.3 6 Sudoeste 28 Norte 6.8 -- -- 85
2020-03-28 13:00:00 13.9 12 Norte 20 Norte 0 -- -- 77
2020-03-28 12:00:00 13.4 12 Nordeste 21 Noroeste 0 -- -- 77
2020-03-28 11:00:00 13.4 12 Norte 23 Noroeste 0 -- -- 78
2020-03-28 10:00:00 13.1 7 Norte 14 Norte 0 -- -- 84
2020-03-28 09:00:00 11 3 Norte 13 Norte 0.4 -- -- 91
2020-03-28 08:00:00 9.8 8 Norte 15 Nordeste 0.4 -- -- 92
2020-03-28 07:00:00 9.7 3 Norte 12 Norte 0.4 -- -- 92
2020-03-28 06:00:00 9.5 4 Norte 10 Noroeste 0.6 -- -- 92
2020-03-28 05:00:00 9.7 5 Norte 20 Norte 0 -- -- 90
2020-03-28 04:00:00 10.9 11 Norte 19 Norte 0 -- -- 85
2020-03-28 03:00:00 10.6 12 Norte 22 Norte 0 -- -- 81
2020-03-28 02:00:00 10.5 10 Norte 19 Norte 0 -- -- 80
2020-03-28 01:00:00 9.9 9 Norte 20 Norte 0 -- -- 84
2020-03-28 00:00:00 10.2 11 Norte 17 Nordeste 0.2 -- -- 87
2020-03-27 23:00:00 9.8 8 Norte 15 Norte 0 -- -- 91
2020-03-27 22:00:00 9.7 7 Norte 20 Norte 0 -- -- 91
2020-03-27 21:00:00 9.4 11 Norte 17 Norte 0 -- -- 92
2020-03-27 20:00:00 9.1 10 Norte 20 Norte 2 -- -- 93
2020-03-27 19:00:00 9.3 9 Norte 24 Norte 1 -- -- 91
2020-03-27 18:00:00 10 7 Nordeste 23 Norte 0.6 -- -- 88
2020-03-27 17:00:00 11.3 12 Norte 18 Norte 0 -- -- 73
2020-03-27 16:00:00 11.7 14 Norte 30 Norte 0 -- -- 73
2020-03-27 15:00:00 12.4 24 Norte 35 Norte 0 -- -- 63
2020-03-27 14:00:00 12.7 23 Norte 39 Norte 0 -- -- 65
2020-03-27 13:00:00 13.2 22 Norte 39 Norte 0 -- -- 62
2020-03-27 12:00:00 12.3 24 Noroeste 40 Noroeste 0 -- -- 63
2020-03-27 11:00:00 12 25 Norte 41 Norte 0 -- -- 60
2020-03-27 10:00:00 12 22 Norte 34 Norte 0 -- -- 61
2020-03-27 09:00:00 10.9 17 Norte 27 Noroeste 0 -- -- 60
2020-03-27 08:00:00 9.2 7 Norte 12 Norte 0 -- -- 69
2020-03-27 07:00:00 7 3 Noroeste 5 Noroeste 0 -- -- 67
2020-03-27 06:00:00 6.8 3 Oeste 6 Noroeste 0 -- -- 65
2020-03-27 05:00:00 7.6 6 Norte 25 Norte 0 -- -- 63
2020-03-27 04:00:00 9.1 14 Norte 22 Nordeste 0 -- -- 63
2020-03-27 03:00:00 7.5 2 Norte 11 Nordeste 0 -- -- 70
2020-03-27 02:00:00 8.3 7 Nordeste 19 Nordeste 0 -- -- 66
2020-03-27 01:00:00 8.6 13 Nordeste 25 Nordeste 0 -- -- 64
2020-03-27 00:00:00 8.6 13 Nordeste 33 Nordeste 0 -- -- 66
2020-03-26 23:00:00 8.9 21 Nordeste 33 Este 0 -- -- 65
2020-03-26 22:00:00 8.7 20 Nordeste 31 Nordeste 0 -- -- 68
2020-03-26 21:00:00 8.7 18 Nordeste 37 Este 0 -- -- 77
2020-03-26 20:00:00 8.2 17 Nordeste 45 Nordeste 1.8 -- -- 86
2020-03-26 19:00:00 8.4 12 Nordeste 40 Este 0 -- -- 83
2020-03-26 18:00:00 8.1 21 Este 37 Este 0.4 -- -- 85
2020-03-26 17:00:00 9.1 18 Este 35 Este 0 -- -- 77
2020-03-26 16:00:00 9.9 19 Este 32 Este 0 -- -- 68
2020-03-26 15:00:00 10.4 18 Este 30 Este 0 -- -- 69
2020-03-26 14:00:00 10.7 17 Este 40 Este 0 -- -- 71
2020-03-26 13:00:00 10.3 19 Este 35 Este 0 -- -- 69
2020-03-26 12:00:00 10.6 18 Este 29 Este 0 -- -- 72
2020-03-26 11:00:00 10.9 21 Este 31 Sudeste 0 -- -- 71
2020-03-26 10:00:00 9.9 14 Sudeste 24 Este 0 -- -- 84
2020-03-26 09:00:00 7.1 7 Sudeste 13 Sudeste 0.6 -- -- 92
2020-03-26 08:00:00 5.7 0 Calma 13 Sur 1.6 -- -- 93
2020-03-26 07:00:00 5.6 8 Sudeste 28 Oeste 6.8 -- -- 92
2020-03-26 06:00:00 6.9 11 Sudeste 17 Sudeste 0 -- -- 80
2020-03-26 05:00:00 7 12 Sudeste 18 Sudeste 0 -- -- 75
2020-03-26 04:00:00 6.6 10 Sudeste 14 Sudeste 0 -- -- 76
2020-03-26 03:00:00 6.4 8 Sur 12 Sudeste 0 -- -- 78
2020-03-26 02:00:00 5.4 5 Sur 10 Sur 0 -- -- 81
2020-03-26 01:00:00 5.5 5 Sur 8 Sur 0 -- -- 73
2020-03-26 00:00:00 4.9 2 Sudoeste 4 Sudeste 0 -- -- 81
2020-03-25 23:00:00 5.6 3 Sudoeste 5 Oeste 0 -- -- 78
2020-03-25 22:00:00 4.7 4 Oeste 6 Oeste 0 -- -- 80
2020-03-25 21:00:00 6.3 0 Calma 12 Nordeste 0 -- -- 73
2020-03-25 20:00:00 7.4 7 Nordeste 19 Nordeste 0 -- -- 69
2020-03-25 19:00:00 8.6 12 Nordeste 24 Nordeste 0 -- -- 58
2020-03-25 18:00:00 10 14 Nordeste 44 Nordeste 0 -- -- 54
2020-03-25 17:00:00 10.7 26 Nordeste 48 Nordeste 0 -- -- 57
2020-03-25 16:00:00 11 24 Nordeste 41 Nordeste 0 -- -- 46
2020-03-25 15:00:00 11.7 26 Nordeste 49 Nordeste 0 -- -- 41
2020-03-25 14:00:00 11.5 25 Nordeste 41 Nordeste 0 -- -- 44
2020-03-25 13:00:00 10.7 9 Nordeste 55 Nordeste 0 -- -- 48
2020-03-25 12:00:00 12.3 22 Nordeste 38 Nordeste 0 -- -- 46
2020-03-25 11:00:00 11.2 23 Nordeste 38 Nordeste 0 -- -- 48
2020-03-25 10:00:00 10 14 Nordeste 30 Nordeste 0 -- -- 57
2020-03-25 09:00:00 10.3 12 Nordeste 21 Nordeste 0 -- -- 56
2020-03-25 08:00:00 8.6 10 Nordeste 28 Nordeste 0 -- -- 62
2020-03-25 07:00:00 8 11 Nordeste 24 Este 0 -- -- 64
2020-03-25 06:00:00 7.7 20 Este 42 Este 0 -- -- 73
2020-03-25 05:00:00 8.6 25 Nordeste 46 Nordeste 0 -- -- 72
2020-03-25 04:00:00 8.2 10 Nordeste 32 Este 0 -- -- 56
2020-03-25 03:00:00 9 18 Este 38 Este 0 -- -- 52
2020-03-25 02:00:00 9.2 18 Nordeste 46 Este 0 -- -- 52
2020-03-25 01:00:00 9.6 24 Nordeste 44 Este 0 -- -- 53
2020-03-25 00:00:00 9.9 27 Este 43 Este 0 -- -- 57
2020-03-24 23:00:00 9.7 23 Nordeste 41 Este 0 -- -- 68
2020-03-24 22:00:00 10.3 21 Nordeste 37 Nordeste 0 -- -- 60
2020-03-24 21:00:00 10.2 17 Nordeste 38 Este 0 -- -- 61
2020-03-24 20:00:00 10.5 21 Nordeste 39 Este 0 -- -- 62
2020-03-24 19:00:00 11 28 Nordeste 43 Este 0 -- -- 58
2020-03-24 18:00:00 11.8 25 Nordeste 44 Nordeste 0 -- -- 56
2020-03-24 17:00:00 12.3 28 Nordeste 51 Nordeste 0 -- -- 53
2020-03-24 16:00:00 12.6 31 Este 54 Nordeste 0 -- -- 54
2020-03-24 15:00:00 12.8 30 Nordeste 54 Nordeste 0 -- -- 53
2020-03-24 14:00:00 13.3 33 Este 57 Nordeste 0 -- -- 48
2020-03-24 13:00:00 13.4 30 Este 48 Este 0 -- -- 57
2020-03-24 12:00:00 12.5 22 Este 49 Nordeste 0 -- -- 68
2020-03-24 11:00:00 12.3 32 Este 52 Nordeste 0 -- -- 72
2020-03-24 10:00:00 12.5 27 Nordeste 46 Nordeste 0 -- -- 75
2020-03-24 09:00:00 12.4 27 Nordeste 46 Nordeste 0 -- -- 78
2020-03-24 08:00:00 12.1 25 Nordeste 44 Nordeste 0 -- -- 81
2020-03-24 07:00:00 11.8 19 Nordeste 39 Este 0 -- -- 82
2020-03-24 06:00:00 11.7 21 Nordeste 38 Este 0 -- -- 78
2020-03-24 05:00:00 12 24 Este 41 Este 0 -- -- 76
2020-03-24 04:00:00 12.2 21 Nordeste 34 Nordeste 0 -- -- 80
2020-03-24 03:00:00 12.4 21 Nordeste 41 Este 0 -- -- 79
2020-03-24 02:00:00 12.7 20 Este 37 Nordeste 0 -- -- 80
2020-03-24 01:00:00 13.1 18 Este 35 Nordeste 0 -- -- 81
2020-03-24 00:00:00 13.2 17 Este 38 Este 0 -- -- 78
2020-03-23 23:00:00 13.3 21 Este 35 Este 0 -- -- 83
2020-03-23 22:00:00 13.5 18 Nordeste 30 Este 0 -- -- 86
2020-03-23 21:00:00 13.1 10 Este 26 Nordeste 0 -- -- 86
2020-03-23 20:00:00 13 9 Nordeste 23 Nordeste 0 -- -- 86
2020-03-23 19:00:00 13.5 15 Nordeste 34 Nordeste 0 -- -- 83
2020-03-23 18:00:00 14.4 18 Nordeste 32 Nordeste 0 -- -- 81
2020-03-23 17:00:00 15.5 17 Nordeste 31 Nordeste 0 -- -- 74
2020-03-23 16:00:00 15.3 20 Nordeste 33 Nordeste 0 -- -- 73
2020-03-23 15:00:00 17 15 Nordeste 29 Nordeste 0.2 -- -- 68
2020-03-23 14:00:00 17.4 12 Este 27 Nordeste 0 -- -- 67
2020-03-23 13:00:00 16.4 17 Nordeste 24 Nordeste 0 -- -- 70
2020-03-23 12:00:00 16.9 11 Nordeste 22 Nordeste 0 -- -- 72
2020-03-23 11:00:00 15.7 10 Este 18 Este 0 -- -- 74
2020-03-23 10:00:00 15.4 12 Este 19 Este 0 -- -- 78
2020-03-23 09:00:00 15 10 Este 17 Este 0 -- -- 84
2020-03-23 08:00:00 14.1 6 Sudeste 12 Este 0 -- -- 90
2020-03-23 07:00:00 11.9 9 Sudeste 17 Sudeste 0 -- -- 94
2020-03-23 06:00:00 12.3 10 Sudeste 18 Este 0 -- -- 94
2020-03-23 05:00:00 11.9 10 Sudeste 16 Sudeste 0 -- -- 94
2020-03-23 04:00:00 12 9 Sudeste 15 Sudeste 0 -- -- 94
2020-03-23 03:00:00 12 7 Sudeste 12 Sudeste 0 -- -- 95
2020-03-23 02:00:00 11.6 7 Sudeste 14 Sudeste 0 -- -- 94
2020-03-23 01:00:00 11.7 8 Sudeste 15 Este 0 -- -- 94
2020-03-23 00:00:00 12.3 9 Sudeste 21 Sudeste 0 -- -- 93
2020-03-22 23:00:00 12.6 10 Sudeste 19 Sudeste 0 -- -- 94
2020-03-22 22:00:00 12.5 9 Sudeste 18 Sudeste 0 -- -- 94
2020-03-22 21:00:00 12.6 7 Sudeste 20 Sudeste 0 -- -- 94
2020-03-22 20:00:00 13 8 Sudeste 19 Sudeste 0 -- -- 94
2020-03-22 19:00:00 12.9 6 Sudeste 23 Sur 0.2 -- -- 94
2020-03-22 18:00:00 12.3 12 Sur 27 Sur 10.2 -- -- 94
2020-03-22 17:00:00 13.3 10 Sur 28 Sur 1.4 -- -- 90
2020-03-22 16:00:00 14.4 18 Sur 29 Sur 0.2 -- -- 85
2020-03-22 15:00:00 14.2 15 Sur 33 Sur 0.2 -- -- 87
2020-03-22 14:00:00 14.3 18 Sur 34 Sudeste 0.2 -- -- 85
2020-03-22 13:00:00 14.9 20 Sudeste 37 Sudeste 0 -- -- 80
2020-03-22 12:00:00 15.2 19 Sudeste 31 Sudeste 0 -- -- 77
2020-03-22 11:00:00 14.9 17 Sudeste 29 Sudeste 0 -- -- 78
2020-03-22 10:00:00 14.8 19 Sudeste 33 Sudeste 0 -- -- 79
2020-03-22 09:00:00 14.1 17 Sudeste 32 Sudeste 0 -- -- 80
2020-03-22 08:00:00 13.5 19 Sudeste 35 Sudeste 0 -- -- 82
2020-03-22 07:00:00 12.4 23 Sudeste 31 Sudeste 0 -- -- 84
2020-03-22 06:00:00 11.9 15 Sudeste 38 Este 0 -- -- 86
2020-03-22 05:00:00 12.3 26 Este 38 Este 0 -- -- 85
2020-03-22 04:00:00 12.4 24 Este 35 Este 0 -- -- 93
2020-03-22 03:00:00 13.4 5 Sur 13 Sur 0 -- -- 93
2020-03-22 02:00:00 13.5 3 Sur 14 Sudeste 1.6 -- -- 92
2020-03-22 01:00:00 13.5 0 Calma 12 Sudeste 0 -- -- 91
2020-03-22 00:00:00 13.7 6 Este 15 Sudeste 0 -- -- 90
2020-03-21 23:00:00 13.3 7 Este 13 Este 0 -- -- 91
2020-03-21 22:00:00 13.6 8 Nordeste 15 Nordeste 0 -- -- 90
2020-03-21 21:00:00 13.8 8 Nordeste 15 Este 0 -- -- 89
2020-03-21 20:00:00 13.8 9 Nordeste 15 Este 0 -- -- 89
2020-03-21 19:00:00 13.9 10 Nordeste 24 Nordeste 0 -- -- 86
2020-03-21 18:00:00 14.9 17 Nordeste 28 Este 0 -- -- 77
2020-03-21 17:00:00 15.1 16 Nordeste 24 Nordeste 0 -- -- 75
2020-03-21 16:00:00 15.2 19 Este 30 Nordeste 0 -- -- 74
2020-03-21 15:00:00 16 19 Este 32 Nordeste 0 -- -- 69
2020-03-21 14:00:00 16.8 16 Este 35 Nordeste 0 -- -- 65
2020-03-21 13:00:00 16.2 19 Este 39 Este 0 -- -- 70
2020-03-21 12:00:00 16.7 21 Este 36 Este 0 -- -- 66
2020-03-21 11:00:00 16.9 26 Este 37 Este 0 -- -- 68
2020-03-21 10:00:00 16 15 Este 24 Nordeste 0 -- -- 75
2020-03-21 09:00:00 14.6 13 Nordeste 21 Nordeste 0 -- -- 85
2020-03-21 08:00:00 13.6 2 Nordeste 10 Nordeste 0 -- -- 90
2020-03-21 07:00:00 13.1 7 Nordeste 21 Nordeste 0 -- -- 90
2020-03-21 06:00:00 13.5 11 Nordeste 24 Nordeste 0 -- -- 92
2020-03-21 05:00:00 13.5 13 Nordeste 26 Nordeste 0 -- -- 91
2020-03-21 04:00:00 13.5 12 Nordeste 27 Nordeste 0 -- -- 90
2020-03-21 03:00:00 13.4 11 Nordeste 22 Nordeste 0 -- -- 88
2020-03-21 02:00:00 12.6 10 Nordeste 19 Nordeste 0 -- -- 86
2020-03-21 01:00:00 12.2 9 Nordeste 18 Este 0 -- -- 86
2020-03-21 00:00:00 12.3 9 Nordeste 23 Este 0 -- -- 87
2020-03-20 23:00:00 12.8 13 Nordeste 27 Este 0 -- -- 85
2020-03-20 22:00:00 12.5 10 Nordeste 18 Nordeste 0 -- -- 85
2020-03-20 21:00:00 12.9 9 Nordeste 21 Este 0 -- -- 83
2020-03-20 20:00:00 12.9 13 Nordeste 22 Nordeste 0 -- -- 81
2020-03-20 19:00:00 13.2 14 Nordeste 31 Nordeste 0 -- -- 80
2020-03-20 18:00:00 14.1 21 Nordeste 33 Nordeste 0 -- -- 78
2020-03-20 17:00:00 14.6 19 Nordeste 36 Nordeste 0 -- -- 74
2020-03-20 16:00:00 14.9 26 Nordeste 39 Nordeste 0 -- -- 71
2020-03-20 15:00:00 16.1 24 Este 39 Este 0 -- -- 67
2020-03-20 14:00:00 15.3 24 Este 43 Este 0 -- -- 68
2020-03-20 13:00:00 16.2 21 Este 39 Este 0 -- -- 66
2020-03-20 12:00:00 15.5 22 Nordeste 39 Este 0 -- -- 67
2020-03-20 11:00:00 14.7 23 Nordeste 38 Nordeste 0 -- -- 72
2020-03-20 10:00:00 15.5 24 Este 38 Este 0 -- -- 61
2020-03-20 09:00:00 15.3 14 Este 31 Este 0 -- -- 64
2020-03-20 08:00:00 13.3 6 Este 14 Este 0 -- -- 79
2020-03-20 07:00:00 11.6 9 Este 16 Este 0 -- -- 85
2020-03-20 06:00:00 11.5 11 Este 19 Este 0 -- -- 83
2020-03-20 05:00:00 11.8 13 Este 24 Este 0 -- -- 82
2020-03-20 04:00:00 11.8 13 Este 27 Este 0 -- -- 83
2020-03-20 03:00:00 10.7 8 Este 21 Este 0 -- -- 86
2020-03-20 02:00:00 10.5 4 Sudeste 17 Sudeste 0 -- -- 87
2020-03-20 01:00:00 11.4 9 Este 21 Este 0 -- -- 88
2020-03-20 00:00:00 11 8 Este 13 Este 0 -- -- 91
2020-03-19 23:00:00 10.4 0 Calma 10 Nordeste 0 -- -- 91
2020-03-19 22:00:00 11.1 5 Nordeste 8 Nordeste 0 -- -- 90
2020-03-19 21:00:00 11.1 2 Nordeste 6 Nordeste 0 -- -- 88
2020-03-19 20:00:00 11.4 3 Nordeste 9 Nordeste 0 -- -- 87
2020-03-19 19:00:00 12.7 8 Nordeste 20 Nordeste 0 -- -- 82
2020-03-19 18:00:00 14.2 17 Nordeste 28 Nordeste 0 -- -- 74
2020-03-19 17:00:00 15 17 Nordeste 26 Nordeste 0 -- -- 71
2020-03-19 16:00:00 16.1 17 Nordeste 29 Este 0 -- -- 65
2020-03-19 15:00:00 16.5 17 Este 28 Nordeste 0 -- -- 62
2020-03-19 14:00:00 15.8 17 Nordeste 28 Nordeste 0 -- -- 66
2020-03-19 13:00:00 16.2 12 Este 23 Este 0 -- -- 62
2020-03-19 12:00:00 16 14 Este 22 Este 0 -- -- 63
2020-03-19 11:00:00 15.6 13 Este 23 Este 0 -- -- 64
2020-03-19 10:00:00 14.3 13 Nordeste 21 Nordeste 0 -- -- 73
2020-03-19 09:00:00 13.5 9 Nordeste 15 Este 0 -- -- 87
2020-03-19 08:00:00 11 0 Calma 5 Este 0 -- -- 94
2020-03-19 07:00:00 9.2 0 Calma 3 Norte 0 -- -- 96
2020-03-19 06:00:00 9.3 2 Noroeste 5 Norte 0 -- -- 97
2020-03-19 05:00:00 9.7 3 Noroeste 4 Noroeste 0 -- -- 96
2020-03-19 04:00:00 10.1 0 Calma 4 Oeste 0 -- -- 95
2020-03-19 03:00:00 10.2 0 Calma 4 Oeste 0 -- -- 94
2020-03-19 02:00:00 10.1 3 Noroeste 5 Norte 0 -- -- 95
2020-03-19 01:00:00 10.6 0 Calma 4 Norte 0 -- -- 94
2020-03-19 00:00:00 11.5 0 Calma 5 Este 0 -- -- 93
2020-03-18 23:00:00 11.8 0 Calma 5 Noroeste 0 -- -- 93
2020-03-18 22:00:00 12 0 Calma 5 Oeste 0 -- -- 92
2020-03-18 21:00:00 12.3 4 Este 13 Nordeste 0 -- -- 91
2020-03-18 20:00:00 12.6 6 Nordeste 16 Nordeste 0 -- -- 90
2020-03-18 19:00:00 13.2 9 Nordeste 19 Nordeste 0 -- -- 88
2020-03-18 18:00:00 13.9 13 Nordeste 17 Nordeste 0 -- -- 85
2020-03-18 17:00:00 14.4 9 Nordeste 18 Nordeste 0 -- -- 83
2020-03-18 16:00:00 14.8 14 Nordeste 22 Nordeste 0 -- -- 81
2020-03-18 15:00:00 15.4 9 Nordeste 25 Nordeste 0 -- -- 79
2020-03-18 14:00:00 15.1 15 Nordeste 23 Nordeste 0 -- -- 80
2020-03-18 13:00:00 15 15 Nordeste 24 Nordeste 0 -- -- 80
2020-03-18 12:00:00 15 14 Nordeste 26 Nordeste 0 -- -- 85
2020-03-18 11:00:00 14.7 15 Nordeste 25 Nordeste 0 -- -- 86
2020-03-18 10:00:00 14.3 15 Nordeste 24 Nordeste 0 -- -- 88
2020-03-18 09:00:00 13.7 14 Nordeste 22 Nordeste 0 -- -- 92
2020-03-18 08:00:00 13.2 10 Nordeste 15 Nordeste 0 -- -- 93
2020-03-18 07:00:00 12.7 8 Nordeste 13 Nordeste 0 -- -- 93
2020-03-18 06:00:00 12.9 10 Nordeste 20 Nordeste 0 -- -- 92
2020-03-18 05:00:00 13.2 12 Nordeste 22 Nordeste 0 -- -- 92
2020-03-18 04:00:00 13.3 13 Nordeste 23 Nordeste 0 -- -- 91
2020-03-18 03:00:00 13.2 14 Nordeste 25 Nordeste 0 -- -- 90
2020-03-18 02:00:00 13.2 14 Nordeste 26 Nordeste 0 -- -- 90
2020-03-18 01:00:00 13.1 13 Nordeste 28 Nordeste 0 -- -- 89
2020-03-18 00:00:00 13.3 16 Nordeste 23 Nordeste 0 -- -- 90
2020-03-17 23:00:00 13.1 9 Nordeste 15 Nordeste 0 -- -- 90
2020-03-17 22:00:00 13.2 10 Nordeste 21 Nordeste 0 -- -- 90
2020-03-17 21:00:00 13.4 10 Nordeste 20 Nordeste 0 -- -- 87
2020-03-17 20:00:00 13.6 14 Nordeste 24 Este 0 -- -- 85
2020-03-17 19:00:00 13.8 15 Nordeste 27 Nordeste 0 -- -- 86
2020-03-17 18:00:00 14.3 15 Este 35 Nordeste 0 -- -- 82
2020-03-17 17:00:00 14.6 21 Este 48 Este 0 -- -- 80
2020-03-17 16:00:00 14.8 23 Este 46 Este 0 -- -- 81
2020-03-17 15:00:00 15.2 22 Este 54 Este 0 -- -- 78
2020-03-17 14:00:00 15.2 32 Este 49 Este 0 -- -- 78
2020-03-17 13:00:00 15.7 28 Este 55 Sudeste 0 -- -- 75
2020-03-17 12:00:00 15.7 32 Este 55 Este 0 -- -- 75
2020-03-17 11:00:00 15.1 27 Este 54 Este 0 -- -- 82
2020-03-17 10:00:00 14.7 30 Este 54 Este 0 -- -- 84
2020-03-17 09:00:00 14.6 32 Este 50 Este 0 -- -- 86
2020-03-17 08:00:00 14.4 25 Este 54 Este 0 -- -- 88
2020-03-17 07:00:00 14.3 25 Este 55 Este 0 -- -- 91
2020-03-17 06:00:00 14.3 18 Nordeste 31 Nordeste 0 -- -- 91
2020-03-17 05:00:00 14.4 15 Este 45 Este 0 -- -- 90
2020-03-17 04:00:00 14.4 22 Este 43 Sudeste 0 -- -- 90
2020-03-17 03:00:00 14.6 18 Sudeste 45 Este 0 -- -- 89
2020-03-17 02:00:00 14.6 18 Este 37 Este 0 -- -- 89
2020-03-17 01:00:00 14.6 25 Este 43 Este 0 -- -- 88
2020-03-17 00:00:00 14.5 27 Este 50 Este 0 -- -- 88
2020-03-16 23:00:00 14.5 24 Este 43 Este 0 -- -- 87
2020-03-16 22:00:00 14.5 27 Este 41 Sudeste 0 -- -- 86
2020-03-16 21:00:00 14.4 28 Este 48 Este 0 -- -- 86
2020-03-16 20:00:00 14.6 22 Este 37 Este 0 -- -- 86
2020-03-16 19:00:00 14.6 23 Este 46 Este 0 -- -- 85
2020-03-16 18:00:00 15 26 Este 45 Sudeste 0 -- -- 83
2020-03-16 17:00:00 15.3 30 Este 54 Este 0 -- -- 81
2020-03-16 16:00:00 15.5 32 Sudeste 60 Sudeste 0 -- -- 81
2020-03-16 15:00:00 15.4 32 Sudeste 57 Este 0 -- -- 80
2020-03-16 14:00:00 15.5 26 Sudeste 49 Sudeste 0 -- -- 80
2020-03-16 13:00:00 15.2 29 Sudeste 58 Sudeste 0 -- -- 81
2020-03-16 12:00:00 14.9 31 Sudeste 59 Sudeste 0 -- -- 82
2020-03-16 11:00:00 15 25 Sudeste 53 Sudeste 0 -- -- 81
2020-03-16 10:00:00 14.7 30 Sudeste 53 Sudeste 0 -- -- 82
2020-03-16 09:00:00 14.5 23 Sudeste 51 Este 0 -- -- 84
2020-03-16 08:00:00 14.1 25 Sudeste 45 Sudeste 0 -- -- 85
2020-03-16 07:00:00 13.6 26 Sudeste 48 Este 0 -- -- 87
2020-03-16 06:00:00 13.4 23 Sudeste 47 Sudeste 0 -- -- 87
2020-03-16 05:00:00 13.2 23 Sudeste 51 Este 0 -- -- 89
2020-03-16 04:00:00 12.9 25 Este 45 Sudeste 0 -- -- 89
2020-03-16 03:00:00 12.5 24 Este 40 Este 0 -- -- 87
2020-03-16 02:00:00 12.2 15 Este 28 Sudeste 0 -- -- 87
2020-03-16 01:00:00 11.4 9 Sudeste 20 Sudeste 0 -- -- 90
2020-03-16 00:00:00 11.1 8 Sudeste 16 Sudeste 0 -- -- 90
2020-03-15 23:00:00 11.7 10 Sudeste 22 Sudeste 0 -- -- 87
2020-03-15 22:00:00 12 12 Este 22 Este 0 -- -- 86
2020-03-15 21:00:00 12 8 Este 18 Este 0 -- -- 83
2020-03-15 20:00:00 12.4 15 Este 25 Este 0 -- -- 79
2020-03-15 19:00:00 12.7 5 Este 18 Sudeste 0 -- -- 74
2020-03-15 18:00:00 15.4 8 Este 21 Sudeste 0 -- -- 62
2020-03-15 17:00:00 17.4 12 Este 21 Este 0 -- -- 58
2020-03-15 16:00:00 17.9 9 Sur 21 Sur 0 -- -- 64
2020-03-15 15:00:00 17.7 8 Sur 15 Sur 0 -- -- 63
2020-03-15 14:00:00 16.2 5 Este 19 Este 0 -- -- 67
2020-03-15 13:00:00 16.5 10 Sur 15 Sudeste 0 -- -- 67
2020-03-15 12:00:00 16.3 5 Nordeste 15 Norte 0 -- -- 67
2020-03-15 11:00:00 16.4 7 Sur 14 Este 0 -- -- 65
2020-03-15 10:00:00 14.9 3 Nordeste 12 Este 0 -- -- 72
2020-03-15 09:00:00 12.8 3 Este 6 Este 0 -- -- 91
2020-03-15 08:00:00 9.8 2 Sudoeste 2 Sudoeste 0 -- -- 93
2020-03-15 07:00:00 9.5 2 Sudoeste 4 Sudoeste 0 -- -- 94
2020-03-15 06:00:00 9.1 0 Calma 2 Sudoeste 0 -- -- 91
2020-03-15 05:00:00 9.2 0 Calma 5 Sudoeste 0 -- -- 90
2020-03-15 04:00:00 9.5 3 Oeste 4 Oeste 0 -- -- 89
2020-03-15 03:00:00 8.8 0 Calma 4 Oeste 0 -- -- 90
2020-03-15 02:00:00 9.6 0 Calma 7 Sudoeste 0 -- -- 89
2020-03-15 01:00:00 9.4 5 Sudoeste 8 Sudoeste 0 -- -- 91
2020-03-15 00:00:00 9.5 3 Sudoeste 8 Sudoeste 0 -- -- 90
2020-03-14 23:00:00 9.6 2 Sudoeste 4 Sudoeste 0 -- -- 88
2020-03-14 22:00:00 10 0 Calma 3 Sudoeste 0 -- -- 87
2020-03-14 21:00:00 10.1 2 Oeste 4 Sudoeste 0 -- -- 85
2020-03-14 20:00:00 11.2 0 Calma 9 Norte 0 -- -- 82
2020-03-14 19:00:00 12.3 5 Norte 12 Nordeste 0 -- -- 75
2020-03-14 18:00:00 14.4 6 Norte 16 Nordeste 0 -- -- 68
2020-03-14 17:00:00 15 11 Norte 18 Nordeste 0 -- -- 65
2020-03-14 16:00:00 14.5 13 Norte 23 Norte 0 -- -- 70
2020-03-14 15:00:00 14.5 15 Nordeste 25 Norte 0 -- -- 72
2020-03-14 14:00:00 14.8 14 Norte 22 Norte 0 -- -- 68
2020-03-14 13:00:00 15.9 13 Norte 22 Nordeste 0 -- -- 62
2020-03-14 12:00:00 15.5 13 Norte 25 Norte 0 -- -- 61
2020-03-14 11:00:00 13.9 15 Nordeste 30 Nordeste 0 -- -- 63
2020-03-14 10:00:00 14.3 17 Nordeste 38 Norte 0 -- -- 59
2020-03-14 09:00:00 13.2 21 Norte 35 Norte 0 -- -- 64
2020-03-14 08:00:00 12.3 21 Norte 32 Norte 0 -- -- 71
2020-03-14 07:00:00 12 19 Norte 28 Norte 0 -- -- 73
2020-03-14 06:00:00 11.7 11 Norte 23 Norte 0 -- -- 74
2020-03-14 05:00:00 11.6 10 Norte 24 Norte 0 -- -- 78
2020-03-14 04:00:00 12.1 16 Nordeste 31 Norte 0 -- -- 79
2020-03-14 03:00:00 13.1 23 Norte 33 Norte 0 -- -- 66
2020-03-14 02:00:00 13 18 Norte 28 Norte 0 -- -- 73
2020-03-14 01:00:00 13 18 Norte 31 Norte 0 -- -- 72
2020-03-14 00:00:00 12.2 10 Norte 15 Norte 0 -- -- 74
2020-03-13 23:00:00 11.7 10 Norte 15 Norte 0 -- -- 78
2020-03-13 22:00:00 11.5 10 Norte 17 Norte 0 -- -- 84
2020-03-13 21:00:00 11.6 11 Norte 18 Norte 0 -- -- 84
2020-03-13 20:00:00 11.9 11 Norte 18 Norte 0 -- -- 84
2020-03-13 19:00:00 12.5 12 Norte 23 Norte 0 -- -- 82
2020-03-13 18:00:00 13.9 13 Norte 31 Norte 0 -- -- 77
2020-03-13 17:00:00 14.8 22 Norte 34 Norte 0 -- -- 75
2020-03-13 16:00:00 15.5 20 Nordeste 28 Nordeste 0 -- -- 71
2020-03-13 15:00:00 15.9 19 Nordeste 35 Nordeste 0 -- -- 72
2020-03-13 14:00:00 15.7 25 Nordeste 41 Nordeste 0 -- -- 73
2020-03-13 13:00:00 16.2 24 Nordeste 40 Norte 0 -- -- 71
2020-03-13 12:00:00 16.1 29 Nordeste 41 Nordeste 0 -- -- 72
2020-03-13 11:00:00 15.3 30 Nordeste 41 Nordeste 0 -- -- 77
2020-03-13 10:00:00 15.9 20 Nordeste 32 Nordeste 0 -- -- 74
2020-03-13 09:00:00 14.8 19 Nordeste 28 Nordeste 0 -- -- 80
2020-03-13 08:00:00 13.1 5 Nordeste 14 Nordeste 0 -- -- 90
2020-03-13 07:00:00 12.5 12 Nordeste 19 Nordeste 0 -- -- 89
2020-03-13 06:00:00 12.7 13 Nordeste 26 Nordeste 0 -- -- 88
2020-03-13 05:00:00 12.9 15 Nordeste 24 Nordeste 0 -- -- 91
2020-03-13 04:00:00 12.5 9 Norte 14 Norte 0 -- -- 87
2020-03-13 03:00:00 10.2 6 Norte 8 Norte 0 -- -- 73
2020-03-13 02:00:00 11.5 0 Calma 3 Sudoeste 0 -- -- 71
2020-03-13 01:00:00 11.2 2 Sudoeste 4 Sudoeste 0 -- -- 78
2020-03-13 00:00:00 12.3 0 Calma 9 Sur 0 -- -- 73
2020-03-12 23:00:00 12.9 6 Sur 13 Sur 0 -- -- 74
2020-03-12 22:00:00 13 6 Sudoeste 10 Sur 0 -- -- 74
2020-03-12 21:00:00 13.9 5 Sur 19 Sudeste 0 -- -- 64
2020-03-12 20:00:00 14.3 6 Sur 15 Sur 0 -- -- 69
2020-03-12 19:00:00 15.2 8 Sur 16 Sur 0 -- -- 60
2020-03-12 18:00:00 17.5 12 Sur 25 Sur 0 -- -- 44
2020-03-12 17:00:00 18.5 19 Sur 32 Sur 0 -- -- 38
2020-03-12 16:00:00 19.6 22 Sur 30 Sur 0 -- -- 37
2020-03-12 15:00:00 20.1 14 Sudoeste 29 Sur 0 -- -- 41
2020-03-12 14:00:00 20 21 Sur 33 Sur 0 -- -- 44
2020-03-12 13:00:00 19.4 22 Sur 32 Sudoeste 0 -- -- 41
2020-03-12 12:00:00 19.7 14 Sur 23 Sur 0 -- -- 40
2020-03-12 11:00:00 18.2 20 Sur 26 Sur 0 -- -- 45
2020-03-12 10:00:00 16.6 15 Sudoeste 26 Sudoeste 0 -- -- 62
2020-03-12 09:00:00 14.3 16 Sur 23 Sur 0 -- -- 96
2020-03-12 08:00:00 13.4 8 Sudoeste 19 Sur 0 -- -- 97
2020-03-12 07:00:00 13.3 15 Sur 20 Sur 0 -- -- 97
2020-03-12 06:00:00 13.2 10 Sur 15 Sur 0 -- -- 97
2020-03-12 05:00:00 12.9 6 Sur 10 Sur 0 -- -- 97
2020-03-12 04:00:00 11.8 3 Sur 10 Sur 0 -- -- 97
2020-03-12 03:00:00 11.8 5 Sur 11 Sur 0 -- -- 97
2020-03-12 02:00:00 12.5 7 Sur 14 Sur 0 -- -- 97
2020-03-12 01:00:00 12.8 8 Sur 19 Sur 0 -- -- 96
2020-03-12 00:00:00 13.4 12 Sur 21 Sur 0 -- -- 96
2020-03-11 23:00:00 13.5 16 Sur 22 Sur 0 -- -- 95
2020-03-11 22:00:00 13.5 12 Sudoeste 20 Sudoeste 0 -- -- 94
2020-03-11 21:00:00 13.8 15 Sur 22 Sur 0 -- -- 94
2020-03-11 20:00:00 13.9 14 Sur 22 Sur 0 -- -- 92
2020-03-11 19:00:00 14.1 12 Sur 21 Sur 0 -- -- 89
2020-03-11 18:00:00 16.3 11 Sur 19 Sur 0 -- -- 78
2020-03-11 17:00:00 17.5 13 Sudoeste 23 Sur 0 -- -- 72
2020-03-11 16:00:00 18.9 14 Sudoeste 25 Sur 0 -- -- 64
2020-03-11 15:00:00 20.2 9 Sur 19 Sur 0 -- -- 61
2020-03-11 14:00:00 18.8 11 Sudoeste 19 Sur 0 -- -- 63
2020-03-11 13:00:00 19 12 Sudoeste 20 Sur 0 -- -- 57
2020-03-11 12:00:00 18.3 9 Sur 21 Sur 0 -- -- 57
2020-03-11 11:00:00 18.2 9 Sur 16 Sudoeste 0 -- -- 62
2020-03-11 10:00:00 17.7 4 Sudeste 7 Este 0 -- -- 67
2020-03-11 09:00:00 14.2 4 Nordeste 5 Nordeste 0 -- -- 89
2020-03-11 08:00:00 12.2 2 Nordeste 4 Este 0 -- -- 93
2020-03-11 07:00:00 10.4 0 Calma 4 Norte 0 -- -- 95
2020-03-11 06:00:00 10.4 2 Nordeste 5 Norte 0 -- -- 92
2020-03-11 05:00:00 10.5 0 Calma 5 Oeste 0 -- -- 92
2020-03-11 04:00:00 10.7 2 Sur 7 Sudeste 0 -- -- 91
2020-03-11 03:00:00 11.7 0 Calma 14 Sudoeste 0 -- -- 90
2020-03-11 02:00:00 12.3 5 Sudoeste 17 Sur 0 -- -- 91
2020-03-11 01:00:00 12 9 Sudoeste 21 Oeste 0 -- -- 89
2020-03-11 00:00:00 12.2 11 Sudoeste 23 Sudoeste 0 -- -- 88
2020-03-10 23:00:00 12 7 Sudoeste 19 Sudoeste 0 -- -- 88
2020-03-10 22:00:00 12 8 Oeste 18 Oeste 0 -- -- 86
2020-03-10 21:00:00 12.2 6 Oeste 19 Oeste 0 -- -- 83
2020-03-10 20:00:00 12.5 9 Oeste 16 Oeste 0 -- -- 83
2020-03-10 19:00:00 13 4 Oeste 15 Oeste 0 -- -- 75
2020-03-10 18:00:00 14.6 11 Oeste 34 Oeste 0 -- -- 69
2020-03-10 17:00:00 15.7 18 Oeste 35 Oeste 0 -- -- 57
2020-03-10 16:00:00 14.4 20 Oeste 30 Oeste 0 -- -- 65
2020-03-10 15:00:00 13.9 16 Oeste 30 Oeste 0 -- -- 66
2020-03-10 14:00:00 14.2 15 Noroeste 29 Oeste 0 -- -- 66
2020-03-10 13:00:00 15.7 13 Noroeste 30 Norte 0 -- -- 60
2020-03-10 12:00:00 15 15 Norte 32 Noroeste 0 -- -- 61
2020-03-10 11:00:00 13.9 21 Norte 32 Norte 0 -- -- 67
2020-03-10 10:00:00 13.2 24 Norte 45 Norte 0 -- -- 69
2020-03-10 09:00:00 12.7 28 Norte 46 Norte 0 -- -- 68
2020-03-10 08:00:00 11.7 29 Norte 55 Norte 0 -- -- 71
2020-03-10 07:00:00 11.2 27 Norte 56 Norte 0 -- -- 70
2020-03-10 06:00:00 11.2 36 Norte 69 Norte 0 -- -- 65
2020-03-10 05:00:00 11.2 35 Norte 71 Norte 0 -- -- 70
2020-03-10 04:00:00 11.3 41 Norte 70 Norte 0 -- -- 61
2020-03-10 03:00:00 11.5 41 Norte 71 Norte 0 -- -- 60
2020-03-10 02:00:00 11.6 42 Norte 68 Norte 0 -- -- 60
2020-03-10 01:00:00 11.6 45 Norte 69 Norte 0 -- -- 61
2020-03-10 00:00:00 12 36 Norte 67 Norte 0 -- -- 59